Архив погоды в Зее

Метеограмма Зея
Вторник, 24 Апреля
Время местн. Темп Ветер Видим Явления Облачность нижн/средн/верх Атм. давл. Влжн Точка росы ВНГО R Сост. почвы Tg s
Напр Скр Прв ур.ст ур.м изм
15:00 +24.1° З,Ю-З 1 - 50 км - ясно 735 754 -1.9 11% -8.1° более 2.5 км - - - -
12:00 +22° В 2 - 50 км - ясно 736 756 -1 12% -8.5° более 2.5 км - - - -
09:00 +11.8° штиль 0 - 50 км - облачно с прояснениями 737 758 +0.2 32% -4.3° более 2.5 км 0 Влажная (без луж) - -
06:00 +1.9° штиль 0 - более 50 км - переменная облачность 737 759 +0.3 58% -5.4° более 2.5 км - - - -
03:00 +4.1° штиль 0 - 50 км - переменная облачность 737 758 -0.5 53% -4.6° более 2.5 км - - - -
00:00 +9.1° штиль 0 - 50 км - облачно 737 758 -0.5 36% -5° - - - - -
Понедельник, 23 Апреля
Время местн. Темп Ветер Видим Явления Облачность нижн/средн/верх Атм. давл. Влжн Точка росы ВНГО R Сост. почвы Tg s
Напр Скр Прв ур.ст ур.м изм
21:00 +10.6° Ю 1 - 50 км - облачно 738 759 -0.4 30% -6.2° - 0 - - -
18:00 +19.6° Ю-З 1 - более 50 км - облачно с прояснениями 738 759 -2 12% -10.6° 1 км - - - -
15:00 +21° З 1 - 50 км - облачно с прояснениями 740 760 -2.9 10% -11.9° - - - - -
12:00 +16.5° Ю 2 - более 50 км - облачно 743 764 -2.1 13% -11.9° более 2.5 км - - - -
09:00 +9.4° Ю 1 - 50 км - облачно с прояснениями 745 766 -1.1 23% -10.7° более 2.5 км 0 Влажная (без луж) - -
06:00 -2° штиль 0 - более 50 км - переменная облачность 746 768 -0.5 65% -7.7° более 2.5 км - - - -
03:00 -1.3° штиль 0 - 50 км - облачно с прояснениями 747 769 -0.2 57% -8.8° более 2.5 км - - - -
00:00 -0.4° штиль 0 - 50 км - ясно 747 769 +0.4 50% -9.5° более 2.5 км - - - -
Воскресенье, 22 Апреля
Время местн. Темп Ветер Видим Явления Облачность нижн/средн/верх Атм. давл. Влжн Точка росы ВНГО R Сост. почвы Tg s
Напр Скр Прв ур.ст ур.м изм
21:00 +4.7° штиль 0 - 50 км - ясно 747 768 0 31% -11.1° более 2.5 км 0 - - -
18:00 +12° З 1 - 50 км - переменная облачность 747 768 -1.2 14% -14.7° более 2.5 км - - - -
15:00 +12.5° С 2 - 50 км - ясно 748 769 -1.7 13% -14.8° более 2.5 км - - - -
12:00 +10.2° С,С-В 1 - 50 км - ясно 750 771 -1.1 15% -15° более 2.5 км - - - -
09:00 +4.1° Ю,Ю-З 1 - более 50 км - ясно 751 772 +0.7 32% -10.9° более 2.5 км 0 Влажная (без луж) -8° -
06:00 -6.1° штиль 0 - 50 км - ясно 750 773 +1 74% -10° более 2.5 км - - - -
03:00 -4.1° штиль 0 - более 50 км - ясно 749 771 +1.1 59% -10.9° более 2.5 км - - - -
00:00 +2.8° С,С-В 2 - 50 км - ясно 748 770 +1.1 24% -15.5° более 2.5 км - - - -
Суббота, 21 Апреля
Время местн. Темп Ветер Видим Явления Облачность нижн/средн/верх Атм. давл. Влжн Точка росы ВНГО R Сост. почвы Tg s
Напр Скр Прв ур.ст ур.м изм
21:00 +3.1° С 1 - 50 км - переменная облачность 747 769 +1.7 25% -15.1° более 2.5 км 0 - - -
18:00 +8.5° С 3 - 50 км - незначительная облачность 745 766 +0.7 14% -17.2° 1 км - - - -
15:00 +10° С-З 2 - 50 км - переменная облачность 745 766 -0.5 14% -16.3° 1 км - - - -
12:00 +8.6° С 3 - 50 км - ясно 745 766 +0.5 14% -17° более 2.5 км - - - -